createdAt,value
2019-02-02T00:00:56.324Z,36.30
2019-02-02T00:03:24.670Z,36.45
2019-02-02T00:05:53.495Z,41.80
2019-02-02T00:08:22.639Z,33.78
2019-02-02T00:10:51.075Z,41.08
2019-02-02T00:13:19.447Z,32.55
2019-02-02T00:15:47.826Z,37.25
2019-02-02T00:18:16.193Z,31.62
2019-02-02T00:20:45.504Z,41.00
2019-02-02T00:23:13.904Z,35.88
2019-02-02T00:25:42.325Z,38.53
2019-02-02T00:28:10.690Z,37.23
2019-02-02T00:30:39.063Z,37.83
2019-02-02T00:33:07.447Z,35.78
2019-02-02T00:35:37.111Z,36.55
2019-02-02T00:38:05.473Z,35.88
2019-02-02T00:40:33.822Z,33.73
2019-02-02T00:43:02.225Z,33.10
2019-02-02T00:45:30.918Z,34.83
2019-02-02T00:47:59.278Z,33.75
2019-02-02T00:50:27.710Z,37.33
2019-02-02T00:52:56.361Z,37.23
2019-02-02T00:55:25.311Z,36.98
2019-02-02T00:57:54.101Z,36.33
2019-02-02T01:00:25.364Z,34.85
2019-02-02T01:02:55.299Z,37.20
2019-02-02T01:05:23.896Z,39.25
2019-02-02T01:08:13.659Z,38.08
2019-02-02T01:10:42.964Z,31.37
2019-02-02T01:13:11.320Z,32.40
2019-02-02T01:15:40.022Z,35.20
2019-02-02T01:18:17.166Z,34.70
2019-02-02T01:20:46.299Z,34.03
2019-02-02T01:23:14.986Z,36.88
2019-02-02T01:25:43.368Z,42.95
2019-02-02T01:28:12.046Z,32.98
2019-02-02T01:30:41.864Z,30.00
2019-02-02T01:33:10.219Z,40.12
2019-02-02T01:35:38.623Z,36.05
2019-02-02T01:38:06.982Z,37.40
2019-02-02T01:40:35.314Z,36.42
2019-02-02T01:43:03.678Z,38.05
2019-02-02T01:45:32.326Z,41.05
2019-02-02T01:48:00.719Z,34.48
2019-02-02T01:50:30.119Z,40.00
2019-02-02T01:52:58.531Z,35.17
2019-02-02T01:55:26.890Z,36.73
2019-02-02T01:57:55.214Z,38.40
2019-02-02T02:00:26.449Z,36.50
2019-02-02T02:02:54.829Z,38.25
2019-02-02T02:05:23.259Z,32.78
2019-02-02T02:07:51.660Z,34.95
2019-02-02T02:10:20.766Z,36.88
2019-02-02T02:12:49.154Z,44.73
2019-02-02T02:15:18.669Z,37.93
2019-02-02T02:17:47.206Z,33.35
2019-02-02T02:20:18.171Z,34.38
2019-02-02T02:22:47.392Z,35.00
2019-02-02T02:25:17.394Z,35.88
2019-02-02T02:27:45.861Z,39.23
2019-02-02T02:30:19.356Z,37.88
2019-02-02T02:32:48.271Z,37.30
2019-02-02T02:35:17.093Z,38.20
2019-02-02T02:37:45.773Z,36.42
2019-02-02T02:40:39.427Z,37.85
2019-02-02T02:43:07.815Z,39.80
2019-02-02T02:45:36.178Z,41.75
2019-02-02T02:48:05.276Z,44.30
2019-02-02T02:50:33.989Z,44.20
2019-02-02T02:53:02.371Z,41.23
2019-02-02T02:55:32.386Z,36.03
2019-02-02T02:58:00.776Z,32.90
2019-02-02T03:00:30.094Z,33.33
2019-02-02T03:02:58.439Z,39.73
2019-02-02T03:05:26.830Z,37.90
2019-02-02T03:07:55.563Z,48.60
2019-02-02T03:10:45.264Z,40.67
2019-02-02T03:13:13.620Z,34.27
2019-02-02T03:15:41.984Z,37.05
2019-02-02T03:18:10.371Z,32.63
2019-02-02T03:20:39.498Z,35.68
2019-02-02T03:23:07.927Z,37.40
2019-02-02T03:25:36.323Z,38.38
2019-02-02T03:28:04.687Z,44.85
2019-02-02T03:30:33.843Z,32.48
2019-02-02T03:33:02.202Z,39.73
2019-02-02T03:35:30.563Z,44.40
2019-02-02T03:37:58.955Z,38.50
2019-02-02T03:40:27.315Z,38.95
2019-02-02T03:42:55.701Z,43.05
2019-02-02T03:45:24.465Z,42.10
2019-02-02T03:47:53.765Z,33.50
2019-02-02T03:50:22.146Z,43.98
2019-02-02T03:52:50.891Z,44.60
2019-02-02T03:55:19.224Z,42.65
2019-02-02T03:57:47.928Z,44.98
2019-02-02T04:00:40.468Z,43.55
2019-02-02T04:03:09.403Z,47.00
2019-02-02T04:05:37.822Z,41.63
2019-02-02T04:08:06.534Z,34.90
2019-02-02T04:10:35.026Z,40.33
2019-02-02T04:13:03.475Z,41.68
2019-02-02T04:15:31.933Z,37.78
2019-02-02T04:18:00.347Z,37.58
2019-02-02T04:20:28.738Z,36.42
2019-02-02T04:22:58.581Z,35.75
2019-02-02T04:25:27.692Z,35.90
2019-02-02T04:27:57.252Z,43.52
2019-02-02T04:30:48.192Z,42.23
2019-02-02T04:33:16.922Z,43.30
2019-02-02T04:35:45.423Z,40.48
2019-02-02T04:38:15.561Z,40.28
2019-02-02T04:40:45.076Z,42.40
2019-02-02T04:43:14.307Z,39.10
2019-02-02T04:45:45.874Z,42.23
2019-02-02T04:48:14.499Z,46.55
2019-02-02T04:50:43.134Z,39.73
2019-02-02T04:53:16.498Z,45.38
2019-02-02T04:55:54.688Z,41.88
2019-02-02T04:58:30.390Z,39.70
2019-02-02T05:01:01.573Z,41.70
2019-02-02T05:03:37.596Z,39.45
2019-02-02T05:06:13.903Z,45.23
2019-02-02T05:08:50.113Z,51.42
2019-02-02T05:11:20.203Z,42.48
2019-02-02T05:19:42.293Z,44.70
2019-02-02T05:22:13.697Z,55.43
2019-02-02T05:27:36.869Z,45.92
2019-02-02T05:30:26.713Z,54.70
2019-02-02T05:32:55.341Z,51.35
2019-02-02T05:35:29.597Z,57.17
2019-02-02T05:38:01.128Z,48.95
2019-02-02T05:40:34.147Z,44.88
2019-02-02T05:43:26.609Z,43.73
2019-02-02T05:45:56.144Z,47.53
2019-02-02T05:48:36.977Z,37.70
2019-02-02T05:51:09.224Z,46.48
2019-02-02T05:56:28.674Z,54.85
2019-02-02T05:59:03.078Z,50.03
2019-02-02T06:01:36.952Z,51.90
2019-02-02T06:04:07.081Z,43.42
2019-02-02T06:06:38.313Z,56.33
2019-02-02T06:09:08.742Z,50.35
2019-02-02T06:11:37.339Z,63.33
2019-02-02T06:14:06.119Z,59.23
2019-02-02T06:16:34.656Z,58.02
2019-02-02T06:19:05.921Z,59.95
2019-02-02T06:21:35.074Z,65.30
2019-02-02T06:24:03.725Z,60.88
2019-02-02T06:26:32.175Z,56.42
2019-02-02T06:29:00.890Z,67.27
2019-02-02T06:31:29.580Z,68.42
2019-02-02T06:33:57.982Z,64.60
2019-02-02T06:36:26.383Z,64.42
2019-02-02T06:38:54.795Z,58.30
2019-02-02T06:41:23.169Z,57.10
2019-02-02T06:43:51.568Z,55.85
2019-02-02T06:46:21.161Z,61.15
2019-02-02T06:48:49.565Z,61.77
2019-02-02T06:51:18.028Z,58.50
2019-02-02T06:53:46.827Z,61.02
2019-02-02T06:56:15.492Z,61.95
2019-02-02T06:58:44.695Z,52.62
2019-02-02T07:01:13.072Z,52.90
2019-02-02T07:03:41.484Z,46.75
2019-02-02T07:06:09.943Z,48.60
2019-02-02T07:08:38.713Z,49.63
2019-02-02T07:11:07.100Z,50.50
2019-02-02T07:13:36.105Z,51.68
2019-02-02T07:16:04.660Z,59.98
2019-02-02T07:18:33.046Z,59.93
2019-02-02T07:21:01.722Z,54.40
2019-02-02T07:23:30.139Z,54.90
2019-02-02T07:25:58.509Z,58.02
2019-02-02T07:28:41.461Z,54.05
2019-02-02T07:37:36.811Z,58.70
2019-02-02T07:40:26.453Z,54.70
2019-02-02T08:09:58.078Z,51.35
2019-02-02T08:57:42.092Z,52.00
2019-02-02T09:00:15.773Z,54.03
2019-02-02T09:30:52.143Z,48.80
2019-02-02T13:41:04.432Z,66.00
2019-02-02T13:52:29.618Z,77.30
2019-02-02T14:06:36.206Z,83.17
2019-02-02T14:08:47.730Z,71.40
2019-02-02T14:11:22.915Z,55.35
2019-02-02T14:13:51.684Z,74.58
2019-02-02T14:16:20.474Z,81.55
2019-02-02T14:18:49.055Z,78.20
2019-02-02T14:21:17.748Z,84.50
2019-02-02T14:23:47.945Z,85.50
2019-02-02T14:26:24.345Z,72.65
2019-02-02T14:28:52.901Z,87.97
2019-02-02T14:31:21.551Z,91.85
2019-02-02T14:33:50.824Z,87.90
2019-02-02T14:36:20.026Z,80.20
2019-02-02T14:39:10.224Z,78.02
2019-02-02T14:41:39.976Z,80.45
2019-02-02T14:44:12.417Z,81.32
2019-02-02T14:46:40.846Z,84.30
2019-02-02T14:49:16.546Z,80.50
2019-02-02T14:51:49.024Z,81.32
2019-02-02T14:54:17.522Z,83.97
2019-02-02T14:56:59.177Z,80.97
2019-02-02T14:59:31.629Z,82.33
2019-02-02T15:02:01.037Z,73.20
2019-02-02T15:04:32.034Z,79.27
2019-02-02T15:07:00.593Z,79.35
2019-02-02T15:09:29.315Z,82.27
2019-02-02T15:12:01.035Z,69.75
2019-02-02T15:14:39.606Z,83.33
2019-02-02T15:17:08.384Z,85.67
2019-02-02T15:19:42.474Z,80.85
2019-02-02T15:22:13.668Z,89.75
2019-02-02T15:24:42.679Z,83.03
2019-02-02T15:27:16.551Z,81.92
2019-02-02T15:29:46.627Z,84.05
2019-02-02T15:32:17.908Z,78.60
2019-02-02T15:34:49.086Z,80.75
2019-02-02T15:37:18.752Z,81.47
2019-02-02T15:39:49.789Z,79.55
2019-02-02T15:42:18.400Z,83.17
2019-02-02T15:44:47.180Z,76.25
2019-02-02T15:47:18.674Z,83.15
2019-02-02T15:49:47.767Z,88.80
2019-02-02T15:52:18.268Z,87.90
2019-02-02T15:54:47.921Z,94.13
2019-02-02T15:57:18.113Z,90.55
2019-02-02T15:59:51.323Z,89.15
2019-02-02T16:02:19.743Z,83.03
2019-02-02T16:04:52.018Z,85.25
2019-02-02T16:07:27.683Z,80.35
2019-02-02T16:10:04.126Z,102.17
2019-02-02T16:12:35.657Z,85.70
2019-02-02T16:20:41.909Z,90.25
2019-02-02T16:23:10.037Z,100.55
2019-02-02T16:25:38.433Z,108.12
2019-02-02T16:28:06.813Z,105.37
2019-02-02T16:30:35.231Z,99.30
2019-02-02T16:33:04.055Z,98.22
2019-02-02T16:35:32.421Z,95.17
2019-02-02T16:38:00.804Z,97.47
2019-02-02T16:40:30.506Z,97.53
2019-02-02T16:42:58.891Z,86.65
2019-02-02T16:45:30.478Z,95.87
2019-02-02T16:47:58.943Z,97.50
2019-02-02T16:50:27.310Z,91.45
2019-02-02T16:52:55.982Z,95.97
2019-02-02T16:55:24.390Z,88.05
2019-02-02T16:57:52.759Z,66.75
2019-02-02T17:00:25.828Z,88.07
2019-02-02T17:02:55.167Z,78.90
2019-02-02T17:05:23.486Z,81.05
2019-02-02T17:08:11.280Z,79.10
2019-02-02T17:10:39.920Z,97.90
2019-02-02T17:13:08.277Z,77.45
2019-02-02T17:15:36.667Z,91.78
2019-02-02T17:18:05.673Z,96.53
2019-02-02T17:20:42.240Z,86.53
2019-02-02T17:23:10.797Z,102.10
2019-02-02T17:25:39.444Z,82.55
2019-02-02T17:28:08.234Z,80.62
2019-02-02T17:30:36.701Z,84.40
2019-02-02T17:33:10.254Z,88.62
2019-02-02T17:35:38.648Z,94.52
2019-02-02T17:38:07.180Z,91.15
2019-02-02T17:40:35.511Z,80.90
2019-02-02T17:43:03.885Z,88.50
2019-02-02T17:45:32.380Z,85.03
2019-02-02T17:48:00.743Z,90.83
2019-02-02T17:50:30.080Z,86.85
2019-02-02T17:52:58.445Z,87.62
2019-02-02T17:55:28.382Z,92.20
2019-02-02T17:57:56.791Z,100.42
2019-02-02T18:00:53.639Z,96.22
2019-02-02T18:03:22.077Z,89.55
2019-02-02T18:05:50.549Z,102.60
2019-02-02T18:08:18.902Z,91.80
2019-02-02T18:10:47.434Z,99.92
2019-02-02T18:13:15.826Z,101.25
2019-02-02T18:15:45.115Z,111.83
2019-02-02T18:18:14.252Z,103.97
2019-02-02T18:20:42.834Z,104.65
2019-02-02T18:23:12.142Z,98.35
2019-02-02T18:25:42.087Z,106.00
2019-02-02T18:28:10.546Z,109.65
2019-02-02T18:30:39.092Z,92.42
2019-02-02T18:33:08.971Z,103.72
2019-02-02T18:35:38.333Z,111.25
2019-02-02T18:38:07.120Z,96.60
2019-02-02T18:40:36.533Z,102.58
2019-02-02T18:43:05.104Z,110.30
2019-02-02T18:45:35.528Z,98.45
2019-02-02T18:48:04.241Z,94.62
2019-02-02T18:50:33.803Z,102.78
2019-02-02T18:53:02.313Z,103.45
2019-02-02T18:55:57.969Z,87.45
2019-02-02T18:58:27.112Z,87.78
2019-02-02T19:00:55.811Z,96.08
2019-02-02T19:03:24.779Z,96.78
2019-02-02T19:05:53.149Z,104.95
2019-02-02T19:08:21.940Z,109.57
2019-02-02T19:10:50.340Z,100.42
2019-02-02T19:13:19.235Z,112.42
2019-02-02T19:15:47.644Z,107.55
2019-02-02T19:18:17.001Z,97.82
2019-02-02T19:20:46.395Z,117.65
2019-02-02T19:23:24.915Z,96.55
2019-02-02T19:25:44.825Z,118.28
2019-02-02T19:28:13.255Z,108.42
2019-02-02T19:30:41.694Z,117.25
2019-02-02T19:33:10.799Z,111.22
2019-02-02T19:35:41.764Z,116.70
2019-02-02T19:38:10.905Z,123.60
2019-02-02T19:40:39.521Z,111.77
2019-02-02T19:43:08.186Z,100.92
2019-02-02T19:45:47.070Z,93.15
2019-02-02T19:48:20.469Z,88.58
2019-02-02T19:50:52.491Z,89.77
2019-02-02T19:53:21.671Z,81.47
2019-02-02T19:58:50.843Z,78.70
2019-02-02T20:01:20.742Z,91.78
2019-02-02T20:06:44.560Z,79.97
2019-02-02T20:09:15.414Z,88.35
2019-02-02T20:20:59.400Z,87.17
2019-02-02T20:29:34.416Z,82.97
2019-02-02T20:32:03.806Z,85.30
2019-02-02T20:35:03.221Z,94.22
2019-02-02T20:43:41.936Z,91.45
2019-02-02T21:33:05.303Z,102.30
2019-02-02T21:54:50.954Z,107.97
2019-02-02T22:05:48.990Z,120.05
2019-02-02T22:11:21.036Z,112.68
2019-02-02T22:22:55.070Z,124.18
2019-02-02T22:31:45.116Z,115.45
2019-02-02T22:34:15.467Z,111.85
2019-02-02T22:42:41.626Z,117.70
2019-02-02T22:45:20.121Z,113.05
2019-02-02T22:48:04.562Z,110.17
2019-02-02T22:50:50.215Z,115.37
2019-02-02T22:53:42.347Z,112.92
2019-02-02T22:59:04.395Z,114.08
2019-02-02T23:01:38.086Z,121.70
2019-02-02T23:04:16.106Z,125.40
2019-02-02T23:07:04.569Z,126.53
2019-02-02T23:09:55.360Z,129.87
2019-02-02T23:15:41.646Z,133.25
2019-02-02T23:18:20.173Z,137.82
2019-02-02T23:20:53.396Z,140.40
2019-02-02T23:23:25.571Z,127.38
2019-02-02T23:26:00.407Z,141.82
2019-02-02T23:28:29.063Z,141.30
2019-02-02T23:30:58.876Z,147.55
2019-02-02T23:33:31.829Z,149.53
2019-02-02T23:36:08.003Z,169.00
2019-02-02T23:38:37.733Z,161.68
2019-02-02T23:41:06.428Z,161.00
2019-02-02T23:43:42.362Z,159.00
2019-02-02T23:46:11.510Z,152.95
2019-02-02T23:48:41.230Z,166.45
2019-02-02T23:51:12.414Z,161.90
2019-02-02T23:53:41.785Z,175.38
2019-02-02T23:58:59.879Z,185.07
